• Join FlightAware (Why Join?)
  • Login
  • US Flag 
12:43PM EDT


 

Airport Tracker/Info


-or-


 

Live Flight TrackerFlight Track Log ✈ N476DS ✈ 30-Sep-2013 ✈ KCDW - CYXU

Flight Track Log - Related Links

Times and Time Zones

All times are in EDT time to prevent confusion due to time zone crossing. See the N476DS flight status page for this flight to view local times or setup timezone preferences in your user account.

Time Position Orientation Groundspeed Altitude Reporting Facility
EDT Latitude Longitude Course Direction KTS MPH feet Rate Location/Type
09:48AM 40.8833 -74.3000 180° South 103 119 1,700  Level New York TRACON
09:49AM 40.8667 -74.3000 180° South 88 101 2,700 900 Climbing New York TRACON
09:50AM 40.8500 -74.3167 217° Southwest 97 112 3,500 660 Climbing New York TRACON
09:51AM 40.8167 -74.3500 217° Southwest 107 123 4,100 300 Climbing New York TRACON
09:52AM 40.8000 -74.3833 237° Southwest 149 171 4,100  Level New York TRACON
09:53AM 40.7667 -74.4333 229° Southwest 153 176 4,100  Level New York TRACON
09:54AM 40.7333 -74.4833 229° Southwest 151 174 4,100  Level New York TRACON
09:55AM 40.7167 -74.5167 237° Southwest 154 177 4,100  Level New York TRACON
09:56AM 40.6833 -74.5667 229° Southwest 154 177 4,100 -60 Level New York TRACON
09:57AM 40.6667 -74.6167 246° West 152 175 4,000 -60 Descending New York TRACON
09:58AM 40.6333 -74.6500 217° Southwest 151 174 4,000 60 Level New York TRACON
10:00AM 40.6158 -74.7278 253° West  Level FlightAware Approximate
10:07AM 40.5506 -75.0699 272° West  Level FlightAware Approximate
10:08AM 40.5520 -75.1195 272° West  Level FlightAware Approximate
10:09AM 40.5534 -75.1691 272° West  Level FlightAware Approximate
10:10AM 40.5548 -75.2187 272° West  Level FlightAware Approximate
10:11AM 40.5561 -75.2683 272° West  Level FlightAware Approximate
10:12AM 40.5575 -75.3178 272° West  Level FlightAware Approximate
10:13AM 40.5588 -75.3674 272° West  Level FlightAware Approximate
10:14AM 40.5601 -75.4170 272° West  Level FlightAware Approximate
10:15AM 40.5614 -75.4666 272° West  Level FlightAware Approximate
10:16AM 40.5626 -75.5162 272° West  Level FlightAware Approximate
10:17AM 40.5638 -75.5658 272° West  Level FlightAware Approximate
10:18AM 40.5650 -75.6154 272° West  Level FlightAware Approximate
10:19AM 40.5662 -75.6650 272° West  Level FlightAware Approximate
10:20AM 40.5841 -75.7047 317° Northwest  Level FlightAware Approximate
10:21AM 40.6116 -75.7386 317° Northwest  Level FlightAware Approximate
10:22AM 40.6392 -75.7725 317° Northwest  Level FlightAware Approximate
10:23AM 40.6667 -75.8064 317° Northwest  Level FlightAware Approximate
10:24AM 40.6942 -75.8404 317° Northwest  Level FlightAware Approximate
10:25AM 40.7218 -75.8744 317° Northwest  Level FlightAware Approximate
10:26AM 40.7493 -75.9084 317° Northwest  Level FlightAware Approximate
10:27AM 40.7768 -75.9425 317° Northwest  Level FlightAware Approximate
10:28AM 40.8043 -75.9765 317° Northwest  Level FlightAware Approximate
10:29AM 40.8317 -76.0107 317° Northwest  Level FlightAware Approximate
10:29AM 41.0853 -76.0069 332° Northwest 137 158 6,000  Level New York Center
10:30AM 40.8654 -76.0338 333° Northwest  Level FlightAware Approximate
10:30AM 41.1128 -76.0419 316° Northwest 137 158 6,000  Level New York Center
10:31AM 40.8990 -76.0569 333° Northwest  Level FlightAware Approximate
10:31AM 41.1383 -76.0772 314° West 144 166 6,000  Level New York Center
10:32AM 40.9327 -76.0801 333° Northwest  Level FlightAware Approximate
10:32AM 41.1656 -76.1178 312° West 144 166 6,000  Level New York Center
10:33AM 40.9663 -76.1033 332° Northwest  Level FlightAware Approximate
10:33AM 41.1892 -76.1472 317° Northwest 139 160 6,000  Level New York Center
10:34AM 41.2167 -76.1881 312° West 139 160 6,000  Level New York Center
10:35AM 41.2439 -76.2261 314° West 139 160 6,000  Level New York Center
10:36AM 41.2694 -76.2614 314° West 139 160 6,000  Level New York Center
10:37AM 41.2950 -76.2967 314° West 139 160 6,000  Level New York Center
10:38AM 41.3164 -76.3258 314° West 139 160 6,000  Level New York Center
10:39AM 41.3458 -76.3642 316° Northwest 139 160 6,000  Level New York Center
10:40AM 41.3714 -76.3997 314° West 139 160 6,000  Level New York Center
10:41AM 41.3967 -76.4350 314° West 139 160 6,000  Level New York Center
10:42AM 41.4200 -76.4700 312° West 139 160 6,000  Level New York Center
10:43AM 41.4436 -76.5025 314° West 139 160 6,000  Level New York Center
10:44AM 41.4728 -76.5439 313° West 139 160 6,000  Level New York Center
10:45AM 41.4981 -76.5792 314° West 139 160 6,000  Level New York Center
10:46AM 41.5233 -76.6147 314° West 139 160 6,000  Level New York Center
10:47AM 41.5467 -76.6472 314° West 139 160 6,000  Level New York Center
10:48AM 41.5722 -76.6828 314° West 139 160 6,000  Level New York Center
10:49AM 41.6014 -76.7242 313° West 139 160 6,100  Climbing New York Center
10:50AM 41.6267 -76.7597 314° West 139 160 6,100  Level New York Center
10:51AM 41.6539 -76.7983 313° West 139 160 6,100  Level New York Center
10:52AM 41.6792 -76.8339 314° West 139 160 6,100  Level New York Center
10:53AM 41.7042 -76.8694 313° West 139 160 6,100  Level New York Center
10:54AM 41.7317 -76.9053 316° Northwest 145 167 6,100 -60 Level New York Center
10:55AM 41.7567 -76.9439 311° West 145 167 6,000 -60 Descending New York Center
10:56AM 41.7819 -76.9794 314° West 145 167 6,000  Level New York Center
10:57AM 41.8069 -77.0181 311° West 145 167 6,000  Level New York Center
10:58AM 41.8325 -77.0483 319° Northwest 145 167 6,000  Level New York Center
10:59AM 41.8633 -77.0931 313° West 145 167 6,000  Level New York Center
11:00AM 41.8831 -77.1208 314° West 139 160 6,000  Level Cleveland Center
11:01AM 41.9092 -77.1583 313° West 139 160 6,000  Level Cleveland Center
11:02AM 41.9367 -77.1956 315° West 139 160 6,000  Level Cleveland Center
11:03AM 41.9631 -77.2339 313° West 140 161 6,000  Level Cleveland Center
11:04AM 41.9892 -77.2722 313° West 139 160 6,000  Level Cleveland Center
11:05AM 42.0156 -77.3097 313° West 138 159 6,000  Level Cleveland Center
11:06AM 42.0475 -77.3539 314° West 138 159 6,000  Level Cleveland Center
11:07AM 42.0739 -77.3922 313° West 139 160 6,000  Level Cleveland Center
11:08AM 42.0997 -77.4300 313° West 138 159 6,000  Level Cleveland Center
11:09AM 42.1258 -77.4658 314° West 137 158 6,000  Level Cleveland Center
11:10AM 42.1511 -77.5022 313° West 134 154 6,000  Level Cleveland Center
11:11AM 42.1761 -77.5386 313° West 133 153 6,000  Level Cleveland Center
11:12AM 42.2067 -77.5844 312° West 136 157 6,000 120 Level Cleveland Center
11:13AM 42.2319 -77.6197 314° West 134 154 6,300 360 Climbing Cleveland Center
11:14AM 42.2528 -77.6500 313° West 116 133 6,800 480 Climbing Cleveland Center
11:15AM 42.2733 -77.6792 314° West 108 124 7,400 480 Climbing Cleveland Center
11:16AM 42.2928 -77.7081 312° West 105 121 7,900 240 Climbing Cleveland Center
11:17AM 42.3147 -77.7400 313° West 111 128 8,000  Climbing Cleveland Center
11:18AM 42.3450 -77.7836 313° West 128 147 8,000  Level Cleveland Center
11:19AM 42.3703 -77.8194 314° West 131 151 8,000  Level Cleveland Center
11:21AM 42.3950 -77.8561 312° West 133 153 8,000  Level Cleveland Center
11:22AM 42.4208 -77.8939 313° West 135 155 8,000  Level Cleveland Center
11:23AM 42.4472 -77.9314 314° West 136 157 8,000  Level Cleveland Center
11:24AM 42.4725 -77.9694 312° West 137 158 8,000  Level Cleveland Center
11:25AM 42.4983 -78.0072 313° West 137 158 8,000 -180 Level Cleveland Center
11:26AM 42.5300 -78.0533 313° West 138 159 7,700 -480 Descending Cleveland Center
11:27AM 42.5600 -78.0975 313° West 155 178 7,100 -600 Descending Cleveland Center
11:28AM 42.5900 -78.1419 313° West 159 183 6,500 -540 Descending Cleveland Center
11:29AM 42.6208 -78.1858 314° West 160 184 6,000 -300 Descending Cleveland Center
11:30AM 42.6489 -78.2264 313° West 155 178 6,000  Level Cleveland Center
11:31AM 42.6753 -78.2667 312° West 148 170 6,000  Level Cleveland Center
11:32AM 42.7061 -78.3136 312° West 143 165 6,000  Level Cleveland Center
11:33AM 42.7336 -78.3533 313° West 146 168 6,000  Level Cleveland Center
11:34AM 42.7619 -78.3931 314° West 141 162 6,000  Level Cleveland Center
11:35AM 42.7894 -78.4361 311° West 143 165 6,000  Level Cleveland Center
11:36AM 42.8175 -78.4783 312° West 145 167 6,000  Level Cleveland Center
11:37AM 42.8444 -78.5219 310° West 145 167 6,000  Level Cleveland Center
11:38AM 42.8733 -78.5650 312° West 147 169 6,000  Level Cleveland Center
11:39AM 42.8997 -78.6033 313° West 146 168 6,000  Level Cleveland Center
11:40AM 42.9167 -78.6333 308° West 145 167 6,000  Level Buffalo TRACON
11:41AM 42.9333 -78.6833 294° West 132 152 6,000  Level Buffalo TRACON
11:42AM 42.9333 -78.7333 270° West 134 154 6,000  Level Buffalo TRACON
11:43AM 42.9333 -78.7833 270° West 135 155 6,000  Level Buffalo TRACON
11:44AM 42.9333 -78.8333 270° West 130 150 6,000  Level Buffalo TRACON
11:45AM 42.9500 -78.8833 294° West 130 150 6,000  Level Buffalo TRACON
11:46AM 42.9500 -78.9333 270° West 132 152 6,000  Level Buffalo TRACON
11:47AM 42.9333 -78.9667 236° Southwest 130 150 6,000  Level Toronto Center
11:48AM 42.9333 -79.0167 270° West 130 150 6,000  Level Toronto Center
11:49AM 42.9500 -79.0667 294° West 130 150 6,000  Level Toronto Center
11:50AM 42.9500 -79.1167 270° West 140 161 6,000  Level Toronto Center
11:51AM 42.9500 -79.1500 270° West 140 161 6,000  Level Toronto Center
11:52AM 42.9500 -79.2167 270° West 130 150 6,000  Level Toronto Center
11:53AM 42.9500 -79.2667 270° West 130 150 6,000  Level Toronto Center
11:54AM 42.9500 -79.3167 270° West 130 150 6,000 -60 Level Toronto Center
11:55AM 42.9500 -79.3667 270° West 140 161 5,900 -60 Descending Toronto Center
11:56AM 42.9667 -79.4333 289° West 130 150 5,900  Level Toronto Center
11:57AM 42.9667 -79.4667 270° West 130 150 5,900  Level Toronto Center
11:58AM 42.9667 -79.5167 270° West 130 150 5,900  Level Toronto Center
11:59AM 42.9667 -79.5667 270° West 130 150 5,900  Level Toronto Center
12:00PM 42.9667 -79.6167 270° West 130 150 5,900  Level Toronto Center
12:01PM 42.9667 -79.6500 270° West 120 138 5,900  Level Toronto Center
12:02PM 42.9667 -79.7000 270° West 130 150 5,900  Level Toronto Center
12:03PM 42.9667 -79.7667 270° West 120 138 6,000  Climbing Toronto Center
12:04PM 42.9833 -79.8167 295° West 130 150 6,000  Level Toronto Center
12:05PM 42.9833 -79.8667 270° West 120 138 6,000  Level Toronto Center
12:06PM 42.9833 -79.9000 270° West 120 138 6,000  Level Toronto Center
12:07PM 42.9833 -79.9500 270° West 120 138 6,000  Level Toronto Center
12:08PM 42.9833 -80.0000 270° West 120 138 6,000  Level Toronto Center
12:09PM 42.9833 -80.0500 270° West 120 138 6,000  Level Toronto Center
12:10PM 42.9833 -80.0833 270° West 130 150 6,000  Level Toronto Center
12:11PM 42.9833 -80.1333 270° West 130 150 6,000  Level Toronto Center
12:12PM 42.9833 -80.1833 270° West 120 138 6,000  Level Toronto Center
12:13PM 43.0000 -80.2333 295° West 120 138 6,000  Level Toronto Center
12:14PM 43.0000 -80.2667 270° West 120 138 6,000  Level Toronto Center
12:15PM 43.0000 -80.3167 270° West 120 138 6,000  Level Toronto Center
12:16PM 43.0000 -80.3667 270° West 120 138 6,000  Level Toronto Center
12:17PM 43.0000 -80.4000 270° West 120 138 6,000  Level Toronto Center
12:18PM 43.0167 -80.4500 295° West 120 138 6,000  Level Toronto Center
12:19PM 43.0333 -80.5000 295° West 120 138 6,000 -300 Level Toronto Center
12:20PM 43.0333 -80.5500 270° West 140 161 5,400 -780 Descending Toronto Center
12:21PM 43.0589 -80.6581 288° West 156 180 4,000 -900 Descending Cleveland Center
12:22PM 43.0697 -80.7178 284° West 156 180 3,100 -720 Descending Cleveland Center
12:24PM 43.0797 -80.7736 284° West 145 167 2,600 -300 Descending Cleveland Center
12:25PM 43.0881 -80.8178 285° West 120 138 2,600 -120 Level Cleveland Center
12:26PM 43.0956 -80.8625 283° West 117 135 2,400 -300 Descending Cleveland Center
12:27PM 43.1008 -80.9106 279° West 122 140 2,000 -240 Descending Cleveland Center
12:28PM 43.0906 -80.9467 249° West 110 127 2,000  Level Cleveland Center
12:29PM 43.0800 -80.9878 251° West 110 127 2,000  Level Cleveland Center
12:30PM 43.0697 -81.0275 251° West 114 131 2,000  Level Cleveland Center
12:31PM 43.0586 -81.0703 250° West 113 130 2,100 -240 Climbing Cleveland Center
12:32PM 43.0333 -81.1000 221° Southwest 90 104 1,600 -480 Descending Toronto Center
12:33PM 43.0333 -81.1167 270° West 80 92 1,200 -360 Descending Toronto Center
12:34PM 43.0167 -81.1333 216° Southwest 70 81 900 -300 Descending Toronto Center